Latest Coastal Weather Observations for Kowanyama

IDQ60701

Issued at 3:35 am EST Saturday 23 August 2014 (issued every 10 minutes, with the page automatically refreshed every 10 minutes)

About coastal observations | Map of coastal stations | Coastal observations for QLD | Marine services | Other Formats
Station Details ID: 029038 Name: KOWANYAMA AIRPORT Lat: -15.48 Lon: 141.75 Height: 9.6 m
Data from the previous 72 hours. | See also: Recent months at Kowanyama
Date/Time
EST
Temp

°C
Wind Pressure Rain
since 9am
mm
Weather Cloud Vis
km
Sea
Height
m
Swell
Dir
 
Speed
knots
Gust
knots
hPa Trend Height
m
Period
s
Dir
23/03:30am 20.0 ENE 3 4 1014.5 - 0.0 - - - - - - -
23/03:00am 20.9 E 5 6 1014.7 - 0.0 - - - - - - -
23/02:30am 19.1 SE 5 7 1014.8 - 0.0 - - - - - - -
23/02:00am 19.5 SE 4 5 1014.9 - 0.0 - Partly cloudy - - - - -
23/01:30am 19.8 E 4 5 1014.9 - 0.0 - Partly cloudy - - - - -
23/01:00am 19.4 ENE 7 11 1015.0 - 0.0 - Partly cloudy - - - - -
23/12:30am 19.5 ESE 3 4 1014.6 - 0.0 - - - - - - -
23/12:00am 19.9 S 3 4 1014.6 - 0.0 - Cloudy - - - - -
 
Date/Time
EST
Temp

°C
Wind Pressure Rain
since 9am
mm
Weather Cloud Vis
km
Sea
Height
m
Swell
Dir
 
Speed
knots
Gust
knots
hPa Trend Height
m
Period
s
Dir
22/11:30pm 20.1 S 3 4 1014.5 - 0.0 - Partly cloudy - - - - -
22/11:00pm 20.3 SSW 3 5 1014.5 - 0.0 - - - - - - -
22/10:30pm 20.6 SSW 4 5 1014.5 - 0.0 - - - - - - -
22/10:00pm 20.8 SSW 4 5 1014.5 - 0.0 - Partly cloudy - - - - -
22/09:30pm 21.1 SSW 4 5 1014.5 - 0.0 - - - - - - -
22/09:00pm 21.5 WSW 3 5 1014.5 - 0.0 - - - - - - -
22/08:30pm 22.0 SW 3 5 1014.4 - 0.0 - - - - - - -
22/08:00pm 22.6 SW 5 6 1014.0 - 0.0 - - - - - - -
22/07:30pm 23.3 WSW 5 7 1013.6 - 0.0 - - - - - - -
22/07:00pm 24.1 W 5 6 1013.3 - 0.0 - - - - - - -
22/06:30pm 25.4 WSW 6 8 1012.9 - 0.0 - - - - - - -
22/06:00pm 26.8 W 8 11 1012.7 - 0.0 - - - - - - -
22/05:30pm 28.5 W 9 11 1012.4 - 0.0 - - - - - - -
22/05:00pm 29.4 WSW 9 11 1012.2 - 0.0 - - - - - - -
22/04:30pm 30.8 W 9 11 1012.0 - 0.0 - - - - - - -
22/04:00pm 30.5 WSW 9 12 1011.9 - 0.0 - Partly cloudy - - - - -
22/03:30pm 31.4 W 11 15 1012.0 - 0.0 - Partly cloudy - - - - -
22/03:00pm 31.0 W 8 11 1012.2 - 0.0 - - - - - - -
22/02:30pm 31.7 NE 5 8 1012.5 - 0.0 - Partly cloudy - - - - -
22/02:00pm 30.6 E 5 7 1013.0 - 0.0 - Partly cloudy - - - - -
22/01:30pm 30.3 N 4 6 1013.5 - 0.0 - Partly cloudy - - - - -
22/01:00pm 30.3 E 3 7 1014.0 - 0.0 - Partly cloudy - - - - -
22/12:30pm 29.8 SE 3 6 1014.5 - 0.0 - Partly cloudy - - - - -
22/12:00pm 29.5 N 3 9 1015.0 - 0.0 - - - - - - -
22/11:30am 28.6 ENE 5 11 1015.8 - 0.0 - - - - - - -
22/11:00am 27.6 E 6 9 1016.3 - 0.0 - - - - - - -
22/10:30am 26.8 NE 6 11 1016.7 - 0.0 - - - - - - -
22/10:00am 26.2 NNE 6 10 1017.0 - 0.0 - - - - - - -
22/09:30am 25.3 NE 6 11 1017.0 - 0.0 - Partly cloudy - - - - -
22/09:00am 23.8 NE 6 9 1017.0 - 0.0 - Cloudy - - - - -
22/08:30am 22.0 ENE 6 11 1016.9 - 0.0 - - - - - - -
22/08:00am 20.4 CALM 0 3 1016.5 - 0.0 - - - - - - -
22/07:30am 17.1 CALM 0 0 1016.4 - 0.0 - - - - - - -
22/07:00am 16.0 CALM 0 0 1015.9 - 0.0 - - - - - - -
22/06:30am 15.9 CALM 0 0 1015.8 - 0.0 - - - - - - -
22/06:00am 16.6 CALM 0 0 1015.6 - 0.0 - Cloudy - - - - -
22/05:30am 17.7 CALM 0 0 1015.3 - 0.0 - Partly cloudy - - - - -
22/05:00am 17.3 CALM 0 0 1015.0 - 0.0 - Partly cloudy - - - - -
22/04:30am 17.2 CALM 0 0 1015.1 - 0.0 - Partly cloudy - - - - -
22/04:00am 17.7 CALM 0 0 1015.1 - 0.0 - Partly cloudy - - - - -
22/03:30am 18.6 CALM 0 0 1015.2 - 0.0 - Partly cloudy - - - - -
22/03:00am 19.2 CALM 0 0 1015.3 - 0.0 - Cloudy - - - - -
22/02:30am 19.1 NE 4 5 1015.4 - 0.0 - Partly cloudy - - - - -
22/02:00am 19.2 ENE 3 5 1015.6 - 0.0 - Cloudy - - - - -
22/01:30am 19.0 NE 5 6 1015.8 - 0.0 - Cloudy - - - - -
22/01:00am 19.2 CALM 0 0 1015.7 - 0.0 - Partly cloudy - - - - -
22/12:30am 19.3 ENE 3 5 1015.8 - 0.0 - Partly cloudy - - - - -
22/12:00am 19.0 SSE 1 4 1015.5 - 0.0 - Partly cloudy - - - - -
 
Date/Time
EST
Temp

°C
Wind Pressure Rain
since 9am
mm
Weather Cloud Vis
km
Sea
Height
m
Swell
Dir
 
Speed
knots
Gust
knots
hPa Trend Height
m
Period
s
Dir
21/11:30pm 18.7 WSW 2 3 1015.2 - 0.0 - - - - - - -
21/11:00pm 19.1 SSW 3 4 1015.1 - 0.0 - - - - - - -
21/10:30pm 19.3 SSW 3 4 1015.0 - 0.0 - - - - - - -
21/10:00pm 19.8 SSW 4 5 1015.1 - 0.0 - - - - - - -
21/09:30pm 20.2 SSW 4 6 1014.9 - 0.0 - - - - - - -
21/09:00pm 20.6 SW 5 7 1014.7 - 0.0 - - - - - - -
21/08:30pm 20.9 SW 5 7 1014.6 - 0.0 - - - - - - -
21/08:00pm 21.4 SW 5 7 1014.1 - 0.0 - - - - - - -
21/07:30pm 21.9 WSW 5 7 1013.9 - 0.0 - - - - - - -
21/07:00pm 22.7 WSW 7 10 1013.5 - 0.0 - - - - - - -
21/06:30pm 23.5 W 8 11 1013.0 - 0.0 - - - - - - -
21/06:00pm 25.0 W 9 12 1012.6 - 0.0 - - - - - - -
21/05:30pm 26.2 W 9 11 1012.4 - 0.0 - - - - - - -
21/05:00pm 27.2 W 10 13 1012.1 - 0.0 - - - - - - -
21/04:30pm 28.1 WNW 12 15 1011.9 - 0.0 - - - - - - -
21/04:00pm 28.6 WNW 9 13 1011.7 - 0.0 - - - - - - -
21/03:30pm 29.2 WNW 9 13 1011.7 - 0.0 - - - - - - -
21/03:00pm 29.4 W 10 16 1011.8 - 0.0 - Mostly cloudy - - - - -
21/02:30pm 28.2 WSW 6 10 1012.1 - 0.0 - Partly cloudy - - - - -
21/02:00pm 29.6 NNW 6 9 1012.5 - 0.0 - Partly cloudy - - - - -
21/01:30pm 29.8 NNW 6 9 1013.1 - 0.0 - - - - - - -
21/01:00pm 29.1 NW 5 7 1013.6 - 0.0 - Partly cloudy - - - - -
21/12:30pm 28.3 NW 5 8 1013.9 - 0.0 - Partly cloudy - - - - -
21/12:00pm 26.8 N 5 9 1014.6 - 0.0 - Cloudy - - - - -
21/11:30am 26.4 E 4 6 1015.1 - 0.0 - Partly cloudy - - - - -
21/11:00am 26.4 N 5 9 1015.6 - 0.0 - Partly cloudy - - - - -
21/10:30am 26.3 NE 6 9 1016.0 - 0.0 - Partly cloudy - - - - -
21/10:00am 24.3 NE 8 12 1016.3 - 0.0 - Partly cloudy - - - - -
21/09:30am 23.6 ENE 6 8 1016.2 - 0.0 - Partly cloudy - - - - -
21/09:00am 22.9 ESE 4 5 1016.2 - 0.0 - Partly cloudy - - - - -
21/08:30am 21.5 SSE 4 5 1016.0 - 0.0 - Cloudy - - - - -
21/08:00am 19.9 CALM 0 0 1015.9 - 0.0 - Partly cloudy - - - - -
21/07:30am 18.9 CALM 0 0 1015.6 - 0.0 - Cloudy - - - - -
21/07:00am 18.1 CALM 0 0 1015.4 - 0.0 - Partly cloudy - - - - -
21/06:30am 17.5 CALM 0 0 1015.2 - 0.0 - Partly cloudy - - - - -
21/06:00am 17.6 CALM 0 0 1015.0 - 0.0 - Mostly cloudy - - - - -
21/05:30am 17.7 CALM 0 0 1014.8 - 0.0 - Partly cloudy - - - - -
21/05:00am 17.9 CALM 0 0 1014.6 - 0.0 - Partly cloudy - - - - -
21/04:30am 18.3 CALM 0 0 1014.4 - 0.0 - Partly cloudy - - - - -
21/04:00am 18.8 CALM 0 0 1014.6 - 0.0 - Cloudy - - - - -
21/03:30am 18.5 CALM 0 0 1014.8 - 0.0 - Cloudy - - - - -
21/03:00am 17.9 CALM 0 0 1015.2 - 0.0 - Cloudy - - - - -
21/02:30am 17.3 NE 4 5 1015.5 - 0.0 - Partly cloudy - - - - -
21/02:00am 17.2 CALM 0 2 1015.5 - 0.0 - Partly cloudy - - - - -
21/01:30am 16.8 ENE 3 6 1015.4 - 0.0 - Partly cloudy - - - - -
21/01:00am 16.3 ENE 4 6 1015.4 - 0.0 - - - - - - -
21/12:30am 16.3 CALM 0 4 1015.1 - 0.0 - - - - - - -
21/12:00am 16.6 CALM 0 0 1014.8 - 0.0 - - - - - - -
 
Date/Time
EST
Temp

°C
Wind Pressure Rain
since 9am
mm
Weather Cloud Vis
km
Sea
Height
m
Swell
Dir
 
Speed
knots
Gust
knots
hPa Trend Height
m
Period
s
Dir
20/11:30pm 17.1 CALM 0 0 1015.0 - 0.0 - - - - - - -
20/11:00pm 17.4 CALM 0 0 1015.1 - 0.0 - - - - - - -
20/10:30pm 17.9 CALM 0 0 1015.2 - 0.0 - - - - - - -
20/10:00pm 18.7 CALM 0 0 1015.3 - 0.0 - - - - - - -
20/09:30pm 19.2 CALM 0 0 1015.3 - 0.0 - - - - - - -
20/09:00pm 19.8 SSW 2 3 1015.1 - 0.0 - - - - - - -
20/08:30pm 20.5 SW 3 5 1014.6 - 0.0 - - - - - - -
20/08:00pm 21.0 SW 4 6 1014.4 - 0.0 - - - - - - -
20/07:30pm 21.8 WSW 4 5 1014.0 - 0.0 - - - - - - -
20/07:00pm 22.6 WSW 5 7 1013.8 - 0.0 - - - - - - -
20/06:30pm 23.5 W 7 10 1013.5 - 0.0 - - - - - - -
20/06:00pm 24.7 W 9 11 1013.4 - 0.0 - - - - - - -
20/05:30pm 25.9 W 8 13 1012.9 - 0.0 - - - - - - -
20/05:00pm 26.7 W 9 14 1012.9 - 0.0 - - - - - - -
20/04:30pm 27.0 W 10 13 1012.8 - 0.0 - - - - - - -
20/04:00pm 28.1 W 12 17 1012.8 - 0.0 - Partly cloudy - - - - -
20/03:30pm 28.2 W 11 16 1012.6 - 0.0 - Partly cloudy - - - - -
20/03:00pm 28.5 W 12 16 1012.7 - 0.0 - - - - - - -
20/02:30pm 28.3 WNW 11 15 1012.8 - 0.0 - - - - - - -
20/02:00pm 29.4 W 11 16 1013.1 - 0.0 - - - - - - -
20/01:30pm 29.5 W 13 17 1013.3 - 0.0 - Partly cloudy - - - - -
20/01:00pm 29.3 NW 7 13 1013.7 - 0.0 - Partly cloudy - - - - -
20/12:30pm 29.3 NW 7 11 1014.1 - 0.0 - Partly cloudy - - - - -
20/12:00pm 28.0 NNW 9 13 1014.5 - 0.0 - - - - - - -
20/11:30am 28.0 NW 8 12 1015.2 - 0.0 - Partly cloudy - - - - -
20/11:00am 26.7 N 7 12 1015.8 - 0.0 - - - - - - -
20/10:30am 26.1 N 7 11 1016.1 - 0.0 - Partly cloudy - - - - -
20/10:00am 24.6 N 6 11 1016.3 - 0.0 - Partly cloudy - - - - -
20/09:30am 23.7 NNE 5 8 1016.5 - 0.0 - Partly cloudy - - - - -
20/09:00am 22.8 NE 6 10 1016.2 - 0.0 - Partly cloudy - - - - -
20/08:30am 21.5 NE 4 8 1016.2 - 0.0 - - - - - - -
20/08:00am 18.8 CALM 0 0 1016.0 - 0.0 - - - - - - -
20/07:30am 15.8 CALM 0 0 1015.6 - 0.0 - - - - - - -
20/07:00am 14.6 ENE 1 4 1015.2 - 0.0 - - - - - - -
20/06:30am 14.2 ENE 3 4 1015.1 - 0.0 - - - - - - -
20/06:00am 13.6 NNE 1 4 1014.7 - 0.0 - Cloudy - - - - -
20/05:30am 13.5 NE 4 5 1014.2 - 0.0 - - - - - - -
20/05:00am 13.5 CALM 0 0 1013.9 - 0.0 - - - - - - -
20/04:30am 13.9 CALM 0 0 1014.2 - 0.0 - - - - - - -
20/04:00am 14.5 CALM 0 0 1014.2 - 0.0 - - - - - - -

Other Formats:

Comma delimited format used in spreadsheet applications
http://www.bom.gov.au/fwo/IDQ60701/IDQ60701.94268.axf

JavaScript Object Notation format (JSON) in row-major order
http://www.bom.gov.au/fwo/IDQ60701/IDQ60701.94268.json